sensor_id;sensor_type;location;lat;lon;timestamp;pressure;altitude;pressure_sealevel;temperature;humidity
47430;BME280;33181;49.246;7.372;2023-12-04T00:01:19;98871.75;;;-1.39;79.11
47430;BME280;33181;49.246;7.372;2023-12-04T00:03:45;98865.75;;;-1.40;79.08
47430;BME280;33181;49.246;7.372;2023-12-04T00:06:11;98860.69;;;-1.43;79.37
47430;BME280;33181;49.246;7.372;2023-12-04T00:08:38;98852.09;;;-1.42;78.92
47430;BME280;33181;49.246;7.372;2023-12-04T00:11:05;98852.00;;;-1.38;78.95
47430;BME280;33181;49.246;7.372;2023-12-04T00:13:31;98844.13;;;-1.34;79.31
47430;BME280;33181;49.246;7.372;2023-12-04T00:15:57;98835.41;;;-1.30;78.70
47430;BME280;33181;49.246;7.372;2023-12-04T00:18:22;98837.09;;;-1.29;78.60
47430;BME280;33181;49.246;7.372;2023-12-04T00:20:48;98836.44;;;-1.35;79.21
47430;BME280;33181;49.246;7.372;2023-12-04T00:23:14;98830.59;;;-1.41;79.42
47430;BME280;33181;49.246;7.372;2023-12-04T00:25:40;98829.69;;;-1.40;79.25
47430;BME280;33181;49.246;7.372;2023-12-04T00:28:05;98826.44;;;-1.45;78.82
47430;BME280;33181;49.246;7.372;2023-12-04T00:30:31;98819.84;;;-1.55;79.46
47430;BME280;33181;49.246;7.372;2023-12-04T00:32:57;98821.59;;;-1.55;79.44
47430;BME280;33181;49.246;7.372;2023-12-04T00:35:23;98821.88;;;-1.65;79.86
47430;BME280;33181;49.246;7.372;2023-12-04T00:37:48;98820.38;;;-1.72;80.13
47430;BME280;33181;49.246;7.372;2023-12-04T00:40:14;98828.84;;;-1.68;80.12
47430;BME280;33181;49.246;7.372;2023-12-04T00:42:40;98823.00;;;-1.73;80.12
47430;BME280;33181;49.246;7.372;2023-12-04T00:45:06;98818.63;;;-1.71;80.14
47430;BME280;33181;49.246;7.372;2023-12-04T00:47:32;98818.63;;;-1.71;80.35
47430;BME280;33181;49.246;7.372;2023-12-04T00:49:58;98819.44;;;-1.69;80.18
47430;BME280;33181;49.246;7.372;2023-12-04T00:52:24;98812.50;;;-1.67;80.03
47430;BME280;33181;49.246;7.372;2023-12-04T00:54:52;98803.28;;;-1.74;79.63
47430;BME280;33181;49.246;7.372;2023-12-04T00:57:17;98805.91;;;-1.76;80.58
47430;BME280;33181;49.246;7.372;2023-12-04T00:59:43;98805.69;;;-1.98;81.46
47430;BME280;33181;49.246;7.372;2023-12-04T01:02:09;98799.97;;;-2.07;81.96
47430;BME280;33181;49.246;7.372;2023-12-04T01:04:35;98791.78;;;-2.20;82.85
47430;BME280;33181;49.246;7.372;2023-12-04T01:07:01;98780.16;;;-2.66;85.19
47430;BME280;33181;49.246;7.372;2023-12-04T01:09:27;98779.72;;;-2.82;87.00
47430;BME280;33181;49.246;7.372;2023-12-04T01:11:55;98782.97;;;-2.75;86.88
47430;BME280;33181;49.246;7.372;2023-12-04T01:14:21;98776.69;;;-2.65;86.36
47430;BME280;33181;49.246;7.372;2023-12-04T01:16:47;98765.31;;;-2.55;86.30
47430;BME280;33181;49.246;7.372;2023-12-04T01:19:15;98764.91;;;-2.41;85.84
47430;BME280;33181;49.246;7.372;2023-12-04T01:21:42;98763.91;;;-2.36;84.75
47430;BME280;33181;49.246;7.372;2023-12-04T01:24:08;98758.53;;;-2.28;84.34
47430;BME280;33181;49.246;7.372;2023-12-04T01:26:33;98756.63;;;-2.21;83.82
47430;BME280;33181;49.246;7.372;2023-12-04T01:28:59;98755.78;;;-2.22;83.85
47430;BME280;33181;49.246;7.372;2023-12-04T01:31:25;98746.22;;;-2.17;83.53
47430;BME280;33181;49.246;7.372;2023-12-04T01:33:51;98743.66;;;-2.17;83.51
47430;BME280;33181;49.246;7.372;2023-12-04T01:36:16;98746.16;;;-2.15;82.87
47430;BME280;33181;49.246;7.372;2023-12-04T01:38:42;98733.19;;;-2.12;83.26
47430;BME280;33181;49.246;7.372;2023-12-04T01:41:08;98734.13;;;-2.15;82.66
47430;BME280;33181;49.246;7.372;2023-12-04T01:43:34;98737.66;;;-2.17;82.83
47430;BME280;33181;49.246;7.372;2023-12-04T01:46:01;98739.34;;;-2.16;82.68
47430;BME280;33181;49.246;7.372;2023-12-04T01:48:27;98732.34;;;-2.11;82.58
47430;BME280;33181;49.246;7.372;2023-12-04T01:50:54;98737.41;;;-2.10;82.58
47430;BME280;33181;49.246;7.372;2023-12-04T01:53:21;98727.09;;;-2.08;82.28
47430;BME280;33181;49.246;7.372;2023-12-04T01:55:47;98713.50;;;-2.13;82.53
47430;BME280;33181;49.246;7.372;2023-12-04T01:58:14;98713.59;;;-2.16;82.22
47430;BME280;33181;49.246;7.372;2023-12-04T02:00:40;98718.84;;;-2.19;81.91
47430;BME280;33181;49.246;7.372;2023-12-04T02:03:06;98719.66;;;-2.17;82.39
47430;BME280;33181;49.246;7.372;2023-12-04T02:05:33;98712.78;;;-2.17;82.37
47430;BME280;33181;49.246;7.372;2023-12-04T02:08:00;98706.53;;;-2.10;82.30
47430;BME280;33181;49.246;7.372;2023-12-04T02:10:26;98695.22;;;-2.04;82.37
47430;BME280;33181;49.246;7.372;2023-12-04T02:12:52;98698.66;;;-2.05;81.48
47430;BME280;33181;49.246;7.372;2023-12-04T02:15:18;98690.41;;;-2.15;81.99
47430;BME280;33181;49.246;7.372;2023-12-04T02:17:44;98686.94;;;-2.14;81.99
47430;BME280;33181;49.246;7.372;2023-12-04T02:20:13;98680.88;;;-2.11;81.65
47430;BME280;33181;49.246;7.372;2023-12-04T02:22:39;98677.44;;;-2.12;82.16
47430;BME280;33181;49.246;7.372;2023-12-04T02:25:07;98682.66;;;-2.13;81.83
47430;BME280;33181;49.246;7.372;2023-12-04T02:27:47;98667.91;;;-2.08;81.92
47430;BME280;33181;49.246;7.372;2023-12-04T02:30:19;98667.25;;;-2.15;81.92
47430;BME280;33181;49.246;7.372;2023-12-04T02:32:47;98666.38;;;-2.14;81.93
47430;BME280;33181;49.246;7.372;2023-12-04T02:35:18;98657.00;;;-2.16;82.06
47430;BME280;33181;49.246;7.372;2023-12-04T02:37:45;98659.72;;;-2.21;81.88
47430;BME280;33181;49.246;7.372;2023-12-04T02:40:12;98652.84;;;-2.20;82.50
47430;BME280;33181;49.246;7.372;2023-12-04T02:42:38;98658.59;;;-2.12;82.56
47430;BME280;33181;49.246;7.372;2023-12-04T02:45:04;98649.00;;;-2.07;82.75
47430;BME280;33181;49.246;7.372;2023-12-04T02:47:30;98650.47;;;-1.98;81.93
47430;BME280;33181;49.246;7.372;2023-12-04T02:49:55;98656.28;;;-1.93;82.11
47430;BME280;33181;49.246;7.372;2023-12-04T02:52:21;98658.03;;;-1.94;81.49
47430;BME280;33181;49.246;7.372;2023-12-04T02:54:47;98657.19;;;-1.94;82.26
47430;BME280;33181;49.246;7.372;2023-12-04T02:57:13;98663.97;;;-1.92;81.69
47430;BME280;33181;49.246;7.372;2023-12-04T02:59:38;98661.25;;;-1.87;81.65
47430;BME280;33181;49.246;7.372;2023-12-04T03:02:04;98661.13;;;-1.82;81.67
47430;BME280;33181;49.246;7.372;2023-12-04T03:04:31;98662.78;;;-1.81;80.91
47430;BME280;33181;49.246;7.372;2023-12-04T03:06:56;98662.78;;;-1.81;80.61
47430;BME280;33181;49.246;7.372;2023-12-04T03:09:22;98661.97;;;-1.83;81.18
47430;BME280;33181;49.246;7.372;2023-12-04T03:11:48;98656.81;;;-1.82;80.74
47430;BME280;33181;49.246;7.372;2023-12-04T03:14:14;98668.22;;;-1.91;80.75
47430;BME280;33181;49.246;7.372;2023-12-04T03:16:40;98658.19;;;-1.98;81.68
47430;BME280;33181;49.246;7.372;2023-12-04T03:19:06;98657.63;;;-2.08;81.47
47430;BME280;33181;49.246;7.372;2023-12-04T03:21:31;98653.34;;;-2.09;82.11
47430;BME280;33181;49.246;7.372;2023-12-04T03:23:57;98646.72;;;-2.16;82.41
47430;BME280;33181;49.246;7.372;2023-12-04T03:26:23;98644.09;;;-2.15;82.42
47430;BME280;33181;49.246;7.372;2023-12-04T03:28:49;98639.94;;;-2.19;83.08
47430;BME280;33181;49.246;7.372;2023-12-04T03:31:14;98637.31;;;-2.17;83.22
47430;BME280;33181;49.246;7.372;2023-12-04T03:33:40;98638.84;;;-2.12;83.37
47430;BME280;33181;49.246;7.372;2023-12-04T03:36:06;98638.94;;;-2.15;83.35
47430;BME280;33181;49.246;7.372;2023-12-04T03:38:32;98631.28;;;-2.16;83.88
47430;BME280;33181;49.246;7.372;2023-12-04T03:40:58;98628.91;;;-2.22;84.01
47430;BME280;33181;49.246;7.372;2023-12-04T03:43:24;98635.69;;;-2.20;83.87
47430;BME280;33181;49.246;7.372;2023-12-04T03:45:49;98630.44;;;-2.17;84.12
47430;BME280;33181;49.246;7.372;2023-12-04T03:48:15;98631.28;;;-2.16;84.02
47430;BME280;33181;49.246;7.372;2023-12-04T03:50:41;98634.69;;;-2.16;83.97
47430;BME280;33181;49.246;7.372;2023-12-04T03:53:07;98643.03;;;-2.07;83.43
47430;BME280;33181;49.246;7.372;2023-12-04T03:55:33;98634.56;;;-2.11;83.43
47430;BME280;33181;49.246;7.372;2023-12-04T03:57:58;98632.88;;;-2.12;83.85
47430;BME280;33181;49.246;7.372;2023-12-04T04:00:24;98632.41;;;-2.25;84.46
47430;BME280;33181;49.246;7.372;2023-12-04T04:02:50;98631.50;;;-2.24;84.86
47430;BME280;33181;49.246;7.372;2023-12-04T04:05:16;98636.34;;;-2.13;84.52
47430;BME280;33181;49.246;7.372;2023-12-04T04:07:42;98632.19;;;-2.17;84.58
47430;BME280;33181;49.246;7.372;2023-12-04T04:10:08;98630.63;;;-2.23;84.63
47430;BME280;33181;49.246;7.372;2023-12-04T04:12:34;98633.16;;;-2.21;85.52
47430;BME280;33181;49.246;7.372;2023-12-04T04:15:00;98626.59;;;-2.31;85.69
47430;BME280;33181;49.246;7.372;2023-12-04T04:17:26;98631.75;;;-2.31;86.01
47430;BME280;33181;49.246;7.372;2023-12-04T04:19:55;98632.56;;;-2.29;85.43
47430;BME280;33181;49.246;7.372;2023-12-04T04:22:21;98621.28;;;-2.25;85.97
47430;BME280;33181;49.246;7.372;2023-12-04T04:24:48;98626.34;;;-2.24;85.96
47430;BME280;33181;49.246;7.372;2023-12-04T04:27:14;98619.50;;;-2.23;86.21
47430;BME280;33181;49.246;7.372;2023-12-04T04:29:40;98624.66;;;-2.23;85.85
47430;BME280;33181;49.246;7.372;2023-12-04T04:32:06;98615.41;;;-2.29;86.42
47430;BME280;33181;49.246;7.372;2023-12-04T04:34:32;98597.91;;;-2.46;87.03
47430;BME280;33181;49.246;7.372;2023-12-04T04:36:58;98597.59;;;-2.37;87.30
47430;BME280;33181;49.246;7.372;2023-12-04T04:39:24;98601.63;;;-2.28;87.49
47430;BME280;33181;49.246;7.372;2023-12-04T04:41:49;98587.66;;;-2.19;86.41
47430;BME280;33181;49.246;7.372;2023-12-04T04:44:15;98590.75;;;-2.10;86.13
47430;BME280;33181;49.246;7.372;2023-12-04T04:46:41;98579.53;;;-2.07;85.88
47430;BME280;33181;49.246;7.372;2023-12-04T04:49:06;98575.78;;;-1.97;85.46
47430;BME280;33181;49.246;7.372;2023-12-04T04:51:33;98568.75;;;-1.92;84.96
47430;BME280;33181;49.246;7.372;2023-12-04T04:54:00;98571.22;;;-1.89;84.41
47430;BME280;33181;49.246;7.372;2023-12-04T04:56:26;98561.75;;;-1.88;84.87
47430;BME280;33181;49.246;7.372;2023-12-04T04:58:52;98563.31;;;-1.82;84.77
47430;BME280;33181;49.246;7.372;2023-12-04T05:01:18;98554.47;;;-1.75;84.30
47430;BME280;33181;49.246;7.372;2023-12-04T05:03:44;98550.88;;;-1.71;84.18
47430;BME280;33181;49.246;7.372;2023-12-04T05:06:10;98550.88;;;-1.71;83.75
47430;BME280;33181;49.246;7.372;2023-12-04T05:08:35;98547.47;;;-1.72;83.55
47430;BME280;33181;49.246;7.372;2023-12-04T05:11:01;98545.81;;;-1.73;83.64
47430;BME280;33181;49.246;7.372;2023-12-04T05:13:27;98540.59;;;-1.71;83.77
47430;BME280;33181;49.246;7.372;2023-12-04T05:15:53;98534.50;;;-1.69;83.67
47430;BME280;33181;49.246;7.372;2023-12-04T05:18:18;98529.13;;;-1.63;83.52
47430;BME280;33181;49.246;7.372;2023-12-04T05:20:44;98518.88;;;-1.64;83.57
47430;BME280;33181;49.246;7.372;2023-12-04T05:23:10;98514.38;;;-1.57;83.47
47430;BME280;33181;49.246;7.372;2023-12-04T05:25:36;98506.66;;;-1.57;83.94
47430;BME280;33181;49.246;7.372;2023-12-04T05:28:01;98505.56;;;-1.52;83.75
47430;BME280;33181;49.246;7.372;2023-12-04T05:30:27;98499.44;;;-1.48;83.33
47430;BME280;33181;49.246;7.372;2023-12-04T05:32:53;98494.19;;;-1.45;83.23
47430;BME280;33181;49.246;7.372;2023-12-04T05:35:20;98489.75;;;-1.41;82.90
47430;BME280;33181;49.246;7.372;2023-12-04T05:37:45;98490.69;;;-1.44;83.77
47430;BME280;33181;49.246;7.372;2023-12-04T05:40:11;98487.09;;;-1.40;83.01
47430;BME280;33181;49.246;7.372;2023-12-04T05:42:38;98485.22;;;-1.34;83.56
47430;BME280;33181;49.246;7.372;2023-12-04T05:45:04;98484.16;;;-1.29;82.04
47430;BME280;33181;49.246;7.372;2023-12-04T05:47:29;98478.09;;;-1.28;82.34
47430;BME280;33181;49.246;7.372;2023-12-04T05:49:55;98477.91;;;-1.23;82.49
47430;BME280;33181;49.246;7.372;2023-12-04T05:52:21;98468.34;;;-1.20;82.28
47430;BME280;33181;49.246;7.372;2023-12-04T05:54:47;98467.56;;;-1.22;82.17
47430;BME280;33181;49.246;7.372;2023-12-04T05:57:12;98465.72;;;-1.18;82.12
47430;BME280;33181;49.246;7.372;2023-12-04T05:59:38;98454.59;;;-1.20;81.78
47430;BME280;33181;49.246;7.372;2023-12-04T06:02:04;98449.53;;;-1.22;82.24
47430;BME280;33181;49.246;7.372;2023-12-04T06:04:30;98450.47;;;-1.24;81.97
47430;BME280;33181;49.246;7.372;2023-12-04T06:06:55;98440.78;;;-1.18;82.20
47430;BME280;33181;49.246;7.372;2023-12-04T06:09:21;98440.53;;;-1.11;81.77
47430;BME280;33181;49.246;7.372;2023-12-04T06:11:47;98440.63;;;-1.13;82.05
47430;BME280;33181;49.246;7.372;2023-12-04T06:14:13;98439.53;;;-1.07;81.82
47430;BME280;33181;49.246;7.372;2023-12-04T06:16:38;98437.84;;;-1.08;81.68
47430;BME280;33181;49.246;7.372;2023-12-04T06:19:04;98434.47;;;-1.10;81.55
47430;BME280;33181;49.246;7.372;2023-12-04T06:21:30;98424.72;;;-1.02;81.41
47430;BME280;33181;49.246;7.372;2023-12-04T06:23:57;98426.75;;;-1.10;81.76
47430;BME280;33181;49.246;7.372;2023-12-04T06:26:23;98423.09;;;-1.05;81.85
47430;BME280;33181;49.246;7.372;2023-12-04T06:28:50;98421.38;;;-1.04;81.46
47430;BME280;33181;49.246;7.372;2023-12-04T06:31:16;98414.38;;;-1.01;81.33
47430;BME280;33181;49.246;7.372;2023-12-04T06:33:43;98410.19;;;-1.03;81.30
47430;BME280;33181;49.246;7.372;2023-12-04T06:36:10;98412.63;;;-1.00;81.67
47430;BME280;33181;49.246;7.372;2023-12-04T06:38:40;98419.56;;;-1.02;81.43
47430;BME280;33181;49.246;7.372;2023-12-04T06:41:07;98410.09;;;-1.02;81.65
47430;BME280;33181;49.246;7.372;2023-12-04T06:43:34;98415.13;;;-0.99;81.89
47430;BME280;33181;49.246;7.372;2023-12-04T06:46:00;98415.69;;;-0.90;81.21
47430;BME280;33181;49.246;7.372;2023-12-04T06:48:26;98412.31;;;-0.93;81.41
47430;BME280;33181;49.246;7.372;2023-12-04T06:50:52;98418.38;;;-0.94;81.65
47430;BME280;33181;49.246;7.372;2023-12-04T06:53:18;98413.16;;;-0.92;81.56
47430;BME280;33181;49.246;7.372;2023-12-04T06:55:44;98412.88;;;-0.84;81.41
47430;BME280;33181;49.246;7.372;2023-12-04T06:58:10;98416.94;;;-0.79;81.14
47430;BME280;33181;49.246;7.372;2023-12-04T07:00:36;98413.00;;;-0.67;80.79
47430;BME280;33181;49.246;7.372;2023-12-04T07:03:04;98414.72;;;-0.66;80.47
47430;BME280;33181;49.246;7.372;2023-12-04T07:05:30;98414.50;;;-0.61;79.71
47430;BME280;33181;49.246;7.372;2023-12-04T07:07:55;98419.75;;;-0.63;79.82
47430;BME280;33181;49.246;7.372;2023-12-04T07:10:21;98417.88;;;-0.59;79.63
47430;BME280;33181;49.246;7.372;2023-12-04T07:12:47;98413.44;;;-0.56;79.49
47430;BME280;33181;49.246;7.372;2023-12-04T07:15:13;98410.75;;;-0.54;79.86
47430;BME280;33181;49.246;7.372;2023-12-04T07:17:39;98419.22;;;-0.51;79.58
47430;BME280;33181;49.246;7.372;2023-12-04T07:20:06;98412.97;;;-0.45;79.71
47430;BME280;33181;49.246;7.372;2023-12-04T07:22:32;98412.97;;;-0.45;79.61
47430;BME280;33181;49.246;7.372;2023-12-04T07:25:01;98412.00;;;-0.42;79.44
47430;BME280;33181;49.246;7.372;2023-12-04T07:27:28;98414.41;;;-0.38;79.80
47430;BME280;33181;49.246;7.372;2023-12-04T07:29:56;98415.00;;;-0.31;79.30
47430;BME280;33181;49.246;7.372;2023-12-04T07:32:21;98406.25;;;-0.29;79.01
47430;BME280;33181;49.246;7.372;2023-12-04T07:34:47;98397.50;;;-0.25;78.60
47430;BME280;33181;49.246;7.372;2023-12-04T07:37:13;98407.16;;;-0.30;78.58
47430;BME280;33181;49.246;7.372;2023-12-04T07:39:39;98406.47;;;-0.33;79.11
47430;BME280;33181;49.246;7.372;2023-12-04T07:42:04;98404.09;;;-0.38;77.64
47430;BME280;33181;49.246;7.372;2023-12-04T07:44:30;98407.16;;;-0.30;77.72
47430;BME280;33181;49.246;7.372;2023-12-04T07:46:56;98400.84;;;-0.22;75.64
47430;BME280;33181;49.246;7.372;2023-12-04T07:49:23;98400.84;;;-0.22;76.08
47430;BME280;33181;49.246;7.372;2023-12-04T07:51:48;98407.31;;;-0.12;76.35
47430;BME280;33181;49.246;7.372;2023-12-04T07:54:14;98404.19;;;0.00;76.18
47430;BME280;33181;49.246;7.372;2023-12-04T07:56:40;98408.66;;;0.15;74.72
47430;BME280;33181;49.246;7.372;2023-12-04T07:59:05;98401.44;;;0.23;74.79
47430;BME280;33181;49.246;7.372;2023-12-04T08:01:31;98401.06;;;0.31;74.41
47430;BME280;33181;49.246;7.372;2023-12-04T08:03:57;98397.53;;;0.34;73.94
47430;BME280;33181;49.246;7.372;2023-12-04T08:06:23;98393.19;;;0.34;73.63
47430;BME280;33181;49.246;7.372;2023-12-04T08:08:49;98390.41;;;0.39;73.92
47430;BME280;33181;49.246;7.372;2023-12-04T08:11:14;98389.50;;;0.40;72.97
47430;BME280;33181;49.246;7.372;2023-12-04T08:13:40;98392.03;;;0.22;72.31
47430;BME280;33181;49.246;7.372;2023-12-04T08:16:14;98394.22;;;0.11;72.89
47430;BME280;33181;49.246;7.372;2023-12-04T08:18:45;98390.13;;;0.07;73.00
47430;BME280;33181;49.246;7.372;2023-12-04T08:21:11;98388.22;;;0.11;72.95
47430;BME280;33181;49.246;7.372;2023-12-04T08:23:37;98386.00;;;0.22;73.12
47430;BME280;33181;49.246;7.372;2023-12-04T08:26:03;98388.13;;;0.33;73.18
47430;BME280;33181;49.246;7.372;2023-12-04T08:28:29;98391.94;;;0.43;73.19
47430;BME280;33181;49.246;7.372;2023-12-04T08:30:55;98396.56;;;0.55;73.05
47430;BME280;33181;49.246;7.372;2023-12-04T08:33:21;98395.31;;;0.64;72.64
47430;BME280;33181;49.246;7.372;2023-12-04T08:35:47;98399.66;;;0.63;73.03
47430;BME280;33181;49.246;7.372;2023-12-04T08:38:13;98406.47;;;0.64;72.51
47430;BME280;33181;49.246;7.372;2023-12-04T08:40:39;98410.03;;;0.43;71.88
47430;BME280;33181;49.246;7.372;2023-12-04T08:43:05;98405.78;;;0.42;72.32
47430;BME280;33181;49.246;7.372;2023-12-04T08:45:31;98403.25;;;0.40;72.52
47430;BME280;33181;49.246;7.372;2023-12-04T08:47:57;98407.66;;;0.38;72.02
47430;BME280;33181;49.246;7.372;2023-12-04T08:50:22;98409.38;;;0.38;73.05
47430;BME280;33181;49.246;7.372;2023-12-04T08:52:50;98407.38;;;0.26;73.81
47430;BME280;33181;49.246;7.372;2023-12-04T08:55:17;98398.00;;;0.04;75.28
47430;BME280;33181;49.246;7.372;2023-12-04T08:57:43;98396.09;;;0.08;76.48
47430;BME280;33181;49.246;7.372;2023-12-04T09:00:09;98410.66;;;0.29;78.12
47430;BME280;33181;49.246;7.372;2023-12-04T09:02:35;98406.09;;;0.34;78.13
47430;BME280;33181;49.246;7.372;2023-12-04T09:05:01;98400.66;;;0.40;78.64
47430;BME280;33181;49.246;7.372;2023-12-04T09:07:27;98395.91;;;0.31;78.69
47430;BME280;33181;49.246;7.372;2023-12-04T09:09:53;98402.22;;;0.26;79.60
47430;BME280;33181;49.246;7.372;2023-12-04T09:12:19;98390.19;;;0.25;81.03
47430;BME280;33181;49.246;7.372;2023-12-04T09:14:44;98387.78;;;0.01;82.72
47430;BME280;33181;49.246;7.372;2023-12-04T09:17:10;98394.88;;;-0.04;83.51
47430;BME280;33181;49.246;7.372;2023-12-04T09:19:36;98387.72;;;0.03;83.32
47430;BME280;33181;49.246;7.372;2023-12-04T09:22:02;98384.13;;;0.07;83.85
47430;BME280;33181;49.246;7.372;2023-12-04T09:24:28;98381.03;;;-0.02;84.29
47430;BME280;33181;49.246;7.372;2023-12-04T09:26:56;98386.13;;;-0.20;85.69
47430;BME280;33181;49.246;7.372;2023-12-04T09:29:22;98380.31;;;-0.05;85.63
47430;BME280;33181;49.246;7.372;2023-12-04T09:31:51;98374.53;;;0.09;86.51
47430;BME280;33181;49.246;7.372;2023-12-04T09:34:17;98375.97;;;0.16;85.52
47430;BME280;33181;49.246;7.372;2023-12-04T09:36:43;98374.09;;;0.19;85.85
47430;BME280;33181;49.246;7.372;2023-12-04T09:39:09;98361.88;;;0.23;85.14
47430;BME280;33181;49.246;7.372;2023-12-04T09:41:37;98356.69;;;0.04;86.05
47430;BME280;33181;49.246;7.372;2023-12-04T09:44:03;98350.00;;;0.00;87.45
47430;BME280;33181;49.246;7.372;2023-12-04T09:46:29;98350.56;;;0.07;87.78
47430;BME280;33181;49.246;7.372;2023-12-04T09:48:55;98346.91;;;0.11;87.07
47430;BME280;33181;49.246;7.372;2023-12-04T09:51:22;98337.94;;;0.19;86.44
47430;BME280;33181;49.246;7.372;2023-12-04T09:53:49;98332.69;;;0.21;86.50
47430;BME280;33181;49.246;7.372;2023-12-04T09:56:16;98340.16;;;0.08;87.43
47430;BME280;33181;49.246;7.372;2023-12-04T09:58:43;98333.66;;;0.18;86.37
47430;BME280;33181;49.246;7.372;2023-12-04T10:01:11;98328.16;;;0.07;86.96
47430;BME280;33181;49.246;7.372;2023-12-04T10:03:38;98328.31;;;-0.16;87.43
47430;BME280;33181;49.246;7.372;2023-12-04T10:06:06;98329.38;;;-0.02;87.75
47430;BME280;33181;49.246;7.372;2023-12-04T10:08:33;98321.59;;;0.00;88.25
47430;BME280;33181;49.246;7.372;2023-12-04T10:10:59;98316.84;;;0.10;87.37
47430;BME280;33181;49.246;7.372;2023-12-04T10:13:27;98312.03;;;0.21;87.88
47430;BME280;33181;49.246;7.372;2023-12-04T10:15:53;98303.44;;;0.20;88.00
47430;BME280;33181;49.246;7.372;2023-12-04T10:18:30;98291.72;;;0.13;87.70
47430;BME280;33181;49.246;7.372;2023-12-04T10:20:58;98291.91;;;0.09;87.72
47430;BME280;33181;49.246;7.372;2023-12-04T10:23:44;98283.44;;;0.07;88.39
47430;BME280;33181;49.246;7.372;2023-12-04T10:26:09;98263.59;;;-0.12;90.27
47430;BME280;33181;49.246;7.372;2023-12-04T10:28:39;98264.50;;;0.06;91.26
47430;BME280;33181;49.246;7.372;2023-12-04T10:31:05;98263.75;;;0.04;91.42
47430;BME280;33181;49.246;7.372;2023-12-04T10:33:32;98260.59;;;0.16;90.87
47430;BME280;33181;49.246;7.372;2023-12-04T10:35:58;98256.88;;;0.22;90.57
47430;BME280;33181;49.246;7.372;2023-12-04T10:38:24;98270.25;;;0.13;90.46
47430;BME280;33181;49.246;7.372;2023-12-04T10:40:52;98237.91;;;0.23;90.16
47430;BME280;33181;49.246;7.372;2023-12-04T10:43:21;98238.94;;;0.19;90.05
47430;BME280;33181;49.246;7.372;2023-12-04T10:45:48;98233.03;;;0.17;90.92
47430;BME280;33181;49.246;7.372;2023-12-04T10:48:16;98233.88;;;-0.02;91.10
47430;BME280;33181;49.246;7.372;2023-12-04T10:50:46;98224.59;;;0.13;90.67
47430;BME280;33181;49.246;7.372;2023-12-04T10:53:14;98216.72;;;0.16;90.57
47430;BME280;33181;49.246;7.372;2023-12-04T10:55:42;98215.88;;;0.16;90.37
47430;BME280;33181;49.246;7.372;2023-12-04T10:58:10;98210.41;;;0.22;90.76
47430;BME280;33181;49.246;7.372;2023-12-04T11:00:49;98207.28;;;0.15;91.24
47430;BME280;33181;49.246;7.372;2023-12-04T11:03:34;98199.19;;;0.23;91.39
47430;BME280;33181;49.246;7.372;2023-12-04T11:06:01;98199.22;;;0.21;91.78
47430;BME280;33181;49.246;7.372;2023-12-04T11:08:33;98197.94;;;0.13;92.32
47430;BME280;33181;49.246;7.372;2023-12-04T11:11:12;98196.34;;;0.28;92.61
47430;BME280;33181;49.246;7.372;2023-12-04T11:13:41;98189.72;;;0.22;92.84
47430;BME280;33181;49.246;7.372;2023-12-04T11:16:41;98168.44;;;0.36;92.99
47430;BME280;33181;49.246;7.372;2023-12-04T11:19:28;98160.00;;;0.50;92.59
47430;BME280;33181;49.246;7.372;2023-12-04T11:21:58;98159.69;;;0.56;92.20
47430;BME280;33181;49.246;7.372;2023-12-04T11:24:24;98156.44;;;0.52;92.25
47430;BME280;33181;49.246;7.372;2023-12-04T11:26:51;98151.88;;;0.57;92.86
47430;BME280;33181;49.246;7.372;2023-12-04T11:29:18;98141.16;;;0.48;93.16
47430;BME280;33181;49.246;7.372;2023-12-04T11:31:45;98138.94;;;0.40;93.96
47430;BME280;33181;49.246;7.372;2023-12-04T11:34:14;98139.94;;;0.37;94.19
47430;BME280;33181;49.246;7.372;2023-12-04T11:36:40;98130.38;;;0.39;94.51
47430;BME280;33181;49.246;7.372;2023-12-04T11:39:12;98127.47;;;0.45;94.72
47430;BME280;33181;49.246;7.372;2023-12-04T11:41:37;98121.09;;;0.53;94.73
47430;BME280;33181;49.246;7.372;2023-12-04T11:44:03;98114.63;;;0.27;95.97
47430;BME280;33181;49.246;7.372;2023-12-04T11:46:37;98114.78;;;0.41;96.50
47430;BME280;33181;49.246;7.372;2023-12-04T11:51:51;98107.88;;;0.59;95.41
47430;BME280;33181;49.246;7.372;2023-12-04T11:54:20;98097.69;;;0.56;95.15
47430;BME280;33181;49.246;7.372;2023-12-04T11:59:40;98091.69;;;0.38;96.44
47430;BME280;33181;49.246;7.372;2023-12-04T12:02:08;98078.25;;;0.49;96.19
47430;BME280;33181;49.246;7.372;2023-12-04T12:04:35;98083.16;;;0.53;96.65
47430;BME280;33181;49.246;7.372;2023-12-04T12:07:02;98074.13;;;0.62;96.83
47430;BME280;33181;49.246;7.372;2023-12-04T12:09:34;98071.22;;;0.68;95.91
47430;BME280;33181;49.246;7.372;2023-12-04T12:12:02;98068.63;;;0.68;95.89
47430;BME280;33181;49.246;7.372;2023-12-04T12:14:29;98068.88;;;0.63;95.26
47430;BME280;33181;49.246;7.372;2023-12-04T12:16:55;98056.19;;;0.59;95.65
47430;BME280;33181;49.246;7.372;2023-12-04T12:19:21;98052.91;;;0.73;95.90
47430;BME280;33181;49.246;7.372;2023-12-04T12:21:48;98054.63;;;0.72;95.20
47430;BME280;33181;49.246;7.372;2023-12-04T12:24:17;98048.88;;;0.67;95.82
47430;BME280;33181;49.246;7.372;2023-12-04T12:26:44;98047.19;;;0.66;96.21
47430;BME280;33181;49.246;7.372;2023-12-04T12:29:11;98033.91;;;0.74;95.22
47430;BME280;33181;49.246;7.372;2023-12-04T12:31:37;98039.38;;;0.67;95.85
47430;BME280;33181;49.246;7.372;2023-12-04T12:34:03;98032.25;;;0.55;97.44
47430;BME280;33181;49.246;7.372;2023-12-04T12:36:29;98026.25;;;0.55;97.32
47430;BME280;33181;49.246;7.372;2023-12-04T12:39:00;98031.50;;;0.53;97.62
47430;BME280;33181;49.246;7.372;2023-12-04T12:41:26;98022.59;;;0.59;97.36
47430;BME280;33181;49.246;7.372;2023-12-04T12:43:52;98021.00;;;0.56;97.12
47430;BME280;33181;49.246;7.372;2023-12-04T12:46:18;98015.78;;;0.58;97.03
47430;BME280;33181;49.246;7.372;2023-12-04T12:48:47;98013.94;;;0.60;97.16
47430;BME280;33181;49.246;7.372;2023-12-04T12:51:13;97997.72;;;0.74;97.53
47430;BME280;33181;49.246;7.372;2023-12-04T12:53:39;98001.41;;;0.85;96.98
47430;BME280;33181;49.246;7.372;2023-12-04T12:56:05;97991.31;;;0.97;96.50
47430;BME280;33181;49.246;7.372;2023-12-04T12:58:31;97992.22;;;0.96;95.94
47430;BME280;33181;49.246;7.372;2023-12-04T13:00:57;97982.63;;;0.82;96.47
47430;BME280;33181;49.246;7.372;2023-12-04T13:03:23;97974.13;;;0.96;96.16
47430;BME280;33181;49.246;7.372;2023-12-04T13:05:48;97977.28;;;1.01;95.56
47430;BME280;33181;49.246;7.372;2023-12-04T13:08:14;97966.72;;;0.89;95.58